sensor_id;sensor_type;location;lat;lon;timestamp;temperature;humidity
23116;DHT22;11727;52.134;5.052;2023-12-20T00:01:00;6.10;99.90
23116;DHT22;11727;52.134;5.052;2023-12-20T00:03:26;6.20;99.90
23116;DHT22;11727;52.134;5.052;2023-12-20T00:05:59;6.20;99.90
23116;DHT22;11727;52.134;5.052;2023-12-20T00:08:27;6.10;99.90
23116;DHT22;11727;52.134;5.052;2023-12-20T00:10:55;6.10;99.90
23116;DHT22;11727;52.134;5.052;2023-12-20T00:13:20;6.10;99.90
23116;DHT22;11727;52.134;5.052;2023-12-20T00:15:46;6.10;99.90
23116;DHT22;11727;52.134;5.052;2023-12-20T00:18:11;6.10;99.90
23116;DHT22;11727;52.134;5.052;2023-12-20T00:20:37;6.10;99.90
23116;DHT22;11727;52.134;5.052;2023-12-20T00:23:03;6.10;99.90
23116;DHT22;11727;52.134;5.052;2023-12-20T00:25:29;6.10;99.90
23116;DHT22;11727;52.134;5.052;2023-12-20T00:27:57;6.20;99.90
23116;DHT22;11727;52.134;5.052;2023-12-20T00:30:27;6.10;99.90
23116;DHT22;11727;52.134;5.052;2023-12-20T00:32:53;6.20;99.90
23116;DHT22;11727;52.134;5.052;2023-12-20T00:35:21;6.10;99.90
23116;DHT22;11727;52.134;5.052;2023-12-20T00:37:47;6.20;99.90
23116;DHT22;11727;52.134;5.052;2023-12-20T00:40:13;6.20;99.90
23116;DHT22;11727;52.134;5.052;2023-12-20T00:42:38;6.20;99.90
23116;DHT22;11727;52.134;5.052;2023-12-20T00:45:13;6.20;99.90
23116;DHT22;11727;52.134;5.052;2023-12-20T00:47:40;6.20;99.90
23116;DHT22;11727;52.134;5.052;2023-12-20T00:50:06;6.20;99.90
23116;DHT22;11727;52.134;5.052;2023-12-20T00:52:32;6.20;99.90
23116;DHT22;11727;52.134;5.052;2023-12-20T00:54:57;6.20;99.90
23116;DHT22;11727;52.134;5.052;2023-12-20T00:57:23;6.20;99.90
23116;DHT22;11727;52.134;5.052;2023-12-20T00:59:49;6.20;99.90
23116;DHT22;11727;52.134;5.052;2023-12-20T01:02:17;6.20;99.90
23116;DHT22;11727;52.134;5.052;2023-12-20T01:04:43;6.30;99.90
23116;DHT22;11727;52.134;5.052;2023-12-20T01:07:11;6.30;99.90
23116;DHT22;11727;52.134;5.052;2023-12-20T01:09:39;6.30;99.90
23116;DHT22;11727;52.134;5.052;2023-12-20T01:12:05;6.30;99.90
23116;DHT22;11727;52.134;5.052;2023-12-20T01:14:30;6.30;99.90
23116;DHT22;11727;52.134;5.052;2023-12-20T01:16:56;6.30;99.90
23116;DHT22;11727;52.134;5.052;2023-12-20T01:19:22;6.30;99.90
23116;DHT22;11727;52.134;5.052;2023-12-20T01:21:50;6.30;99.90
23116;DHT22;11727;52.134;5.052;2023-12-20T01:24:16;6.40;99.90
23116;DHT22;11727;52.134;5.052;2023-12-20T01:26:41;6.40;99.90
23116;DHT22;11727;52.134;5.052;2023-12-20T01:29:07;6.50;99.90
23116;DHT22;11727;52.134;5.052;2023-12-20T01:31:33;6.50;99.90
23116;DHT22;11727;52.134;5.052;2023-12-20T01:33:58;6.50;99.90
23116;DHT22;11727;52.134;5.052;2023-12-20T01:36:24;6.50;99.90
23116;DHT22;11727;52.134;5.052;2023-12-20T01:38:57;6.50;99.90
23116;DHT22;11727;52.134;5.052;2023-12-20T01:41:23;6.50;99.90
23116;DHT22;11727;52.134;5.052;2023-12-20T01:43:49;6.50;99.90
23116;DHT22;11727;52.134;5.052;2023-12-20T01:46:14;6.50;99.90
23116;DHT22;11727;52.134;5.052;2023-12-20T01:48:41;6.50;99.90
23116;DHT22;11727;52.134;5.052;2023-12-20T01:51:07;6.60;99.90
23116;DHT22;11727;52.134;5.052;2023-12-20T01:53:35;6.60;99.90
23116;DHT22;11727;52.134;5.052;2023-12-20T01:56:01;6.60;99.90
23116;DHT22;11727;52.134;5.052;2023-12-20T01:58:27;6.60;99.90
23116;DHT22;11727;52.134;5.052;2023-12-20T02:00:54;6.60;99.90
23116;DHT22;11727;52.134;5.052;2023-12-20T02:03:20;6.70;99.90
23116;DHT22;11727;52.134;5.052;2023-12-20T02:05:47;6.70;99.90
23116;DHT22;11727;52.134;5.052;2023-12-20T02:08:13;6.80;99.90
23116;DHT22;11727;52.134;5.052;2023-12-20T02:10:39;6.80;99.90
23116;DHT22;11727;52.134;5.052;2023-12-20T02:13:06;6.80;99.90
23116;DHT22;11727;52.134;5.052;2023-12-20T02:15:34;6.80;99.90
23116;DHT22;11727;52.134;5.052;2023-12-20T02:18:04;6.80;99.90
23116;DHT22;11727;52.134;5.052;2023-12-20T02:20:30;6.80;99.90
23116;DHT22;11727;52.134;5.052;2023-12-20T02:22:56;6.80;99.90
23116;DHT22;11727;52.134;5.052;2023-12-20T02:25:21;6.90;99.90
23116;DHT22;11727;52.134;5.052;2023-12-20T02:27:48;6.90;99.90
23116;DHT22;11727;52.134;5.052;2023-12-20T02:30:16;6.90;99.90
23116;DHT22;11727;52.134;5.052;2023-12-20T02:32:42;6.90;99.90
23116;DHT22;11727;52.134;5.052;2023-12-20T02:35:08;6.90;99.90
23116;DHT22;11727;52.134;5.052;2023-12-20T02:37:33;6.90;99.90
23116;DHT22;11727;52.134;5.052;2023-12-20T02:39:59;7.00;99.90
23116;DHT22;11727;52.134;5.052;2023-12-20T02:42:25;7.00;99.90
23116;DHT22;11727;52.134;5.052;2023-12-20T02:44:50;7.00;99.90
23116;DHT22;11727;52.134;5.052;2023-12-20T02:47:16;7.00;99.90
23116;DHT22;11727;52.134;5.052;2023-12-20T02:49:42;7.10;99.90
23116;DHT22;11727;52.134;5.052;2023-12-20T02:52:07;7.00;99.90
23116;DHT22;11727;52.134;5.052;2023-12-20T02:54:33;7.10;99.90
23116;DHT22;11727;52.134;5.052;2023-12-20T02:56:59;7.10;99.90
23116;DHT22;11727;52.134;5.052;2023-12-20T02:59:24;7.10;99.90
23116;DHT22;11727;52.134;5.052;2023-12-20T03:01:50;7.10;99.90
23116;DHT22;11727;52.134;5.052;2023-12-20T03:04:18;7.10;99.90
23116;DHT22;11727;52.134;5.052;2023-12-20T03:06:43;7.20;99.90
23116;DHT22;11727;52.134;5.052;2023-12-20T03:09:09;7.20;99.90
23116;DHT22;11727;52.134;5.052;2023-12-20T03:11:35;7.20;99.90
23116;DHT22;11727;52.134;5.052;2023-12-20T03:14:00;7.10;99.90
23116;DHT22;11727;52.134;5.052;2023-12-20T03:16:26;7.10;99.90
23116;DHT22;11727;52.134;5.052;2023-12-20T03:18:54;7.10;99.90
23116;DHT22;11727;52.134;5.052;2023-12-20T03:21:19;7.10;99.90
23116;DHT22;11727;52.134;5.052;2023-12-20T03:23:45;7.10;99.90
23116;DHT22;11727;52.134;5.052;2023-12-20T03:26:11;7.10;99.90
23116;DHT22;11727;52.134;5.052;2023-12-20T03:28:36;7.10;99.90
23116;DHT22;11727;52.134;5.052;2023-12-20T03:31:03;7.10;99.90
23116;DHT22;11727;52.134;5.052;2023-12-20T03:33:29;7.10;99.90
23116;DHT22;11727;52.134;5.052;2023-12-20T03:35:54;7.10;99.90
23116;DHT22;11727;52.134;5.052;2023-12-20T03:38:21;7.10;99.90
23116;DHT22;11727;52.134;5.052;2023-12-20T03:40:46;7.10;99.90
23116;DHT22;11727;52.134;5.052;2023-12-20T03:43:12;7.10;99.90
23116;DHT22;11727;52.134;5.052;2023-12-20T03:45:38;7.10;99.90
23116;DHT22;11727;52.134;5.052;2023-12-20T03:48:04;7.10;99.90
23116;DHT22;11727;52.134;5.052;2023-12-20T03:50:32;7.10;99.90
23116;DHT22;11727;52.134;5.052;2023-12-20T03:52:58;7.10;99.90
23116;DHT22;11727;52.134;5.052;2023-12-20T03:55:23;7.10;99.90
23116;DHT22;11727;52.134;5.052;2023-12-20T03:57:49;7.10;99.90
23116;DHT22;11727;52.134;5.052;2023-12-20T04:00:19;7.10;99.90
23116;DHT22;11727;52.134;5.052;2023-12-20T04:02:47;7.10;99.90
23116;DHT22;11727;52.134;5.052;2023-12-20T04:05:13;7.10;99.90
23116;DHT22;11727;52.134;5.052;2023-12-20T04:07:41;7.10;99.90
23116;DHT22;11727;52.134;5.052;2023-12-20T04:10:07;7.10;99.90
23116;DHT22;11727;52.134;5.052;2023-12-20T04:12:33;7.10;99.90
23116;DHT22;11727;52.134;5.052;2023-12-20T04:15:01;7.10;99.90
23116;DHT22;11727;52.134;5.052;2023-12-20T04:17:34;7.20;99.90
23116;DHT22;11727;52.134;5.052;2023-12-20T04:20:02;7.20;99.90
23116;DHT22;11727;52.134;5.052;2023-12-20T04:22:28;7.20;99.90
23116;DHT22;11727;52.134;5.052;2023-12-20T04:24:56;7.20;99.90
23116;DHT22;11727;52.134;5.052;2023-12-20T04:27:21;7.20;99.90
23116;DHT22;11727;52.134;5.052;2023-12-20T04:29:47;7.30;99.90
23116;DHT22;11727;52.134;5.052;2023-12-20T04:32:12;7.30;99.90
23116;DHT22;11727;52.134;5.052;2023-12-20T04:34:40;7.30;99.90
23116;DHT22;11727;52.134;5.052;2023-12-20T04:37:06;7.30;99.90
23116;DHT22;11727;52.134;5.052;2023-12-20T04:39:34;7.30;99.90
23116;DHT22;11727;52.134;5.052;2023-12-20T04:41:59;7.30;99.90
23116;DHT22;11727;52.134;5.052;2023-12-20T04:44:25;7.30;99.90
23116;DHT22;11727;52.134;5.052;2023-12-20T04:46:54;7.30;99.90
23116;DHT22;11727;52.134;5.052;2023-12-20T04:49:21;7.30;99.90
23116;DHT22;11727;52.134;5.052;2023-12-20T04:51:49;7.30;99.90
23116;DHT22;11727;52.134;5.052;2023-12-20T04:54:15;7.30;99.90
23116;DHT22;11727;52.134;5.052;2023-12-20T04:56:41;7.30;99.90
23116;DHT22;11727;52.134;5.052;2023-12-20T04:59:07;7.30;99.90
23116;DHT22;11727;52.134;5.052;2023-12-20T05:01:33;7.30;99.90
23116;DHT22;11727;52.134;5.052;2023-12-20T05:03:59;7.30;99.90
23116;DHT22;11727;52.134;5.052;2023-12-20T05:06:24;7.20;99.90
23116;DHT22;11727;52.134;5.052;2023-12-20T05:08:50;7.30;99.90
23116;DHT22;11727;52.134;5.052;2023-12-20T05:11:15;7.20;99.90
23116;DHT22;11727;52.134;5.052;2023-12-20T05:13:43;7.20;99.90
23116;DHT22;11727;52.134;5.052;2023-12-20T05:16:09;7.20;99.90
23116;DHT22;11727;52.134;5.052;2023-12-20T05:18:34;7.20;99.90
23116;DHT22;11727;52.134;5.052;2023-12-20T05:21:00;7.20;99.90
23116;DHT22;11727;52.134;5.052;2023-12-20T05:23:26;7.20;99.90
23116;DHT22;11727;52.134;5.052;2023-12-20T05:25:52;7.20;99.90
23116;DHT22;11727;52.134;5.052;2023-12-20T05:28:18;7.20;99.90
23116;DHT22;11727;52.134;5.052;2023-12-20T05:30:44;7.20;99.90
23116;DHT22;11727;52.134;5.052;2023-12-20T05:33:09;7.30;99.90
23116;DHT22;11727;52.134;5.052;2023-12-20T05:35:38;7.30;99.90
23116;DHT22;11727;52.134;5.052;2023-12-20T05:38:03;7.30;99.90
23116;DHT22;11727;52.134;5.052;2023-12-20T05:40:29;7.30;99.90
23116;DHT22;11727;52.134;5.052;2023-12-20T05:42:54;7.30;99.90
23116;DHT22;11727;52.134;5.052;2023-12-20T05:45:20;7.30;99.90
23116;DHT22;11727;52.134;5.052;2023-12-20T05:47:46;7.40;99.90
23116;DHT22;11727;52.134;5.052;2023-12-20T05:50:11;7.40;99.90
23116;DHT22;11727;52.134;5.052;2023-12-20T05:52:37;7.40;99.90
23116;DHT22;11727;52.134;5.052;2023-12-20T05:55:03;7.40;99.90
23116;DHT22;11727;52.134;5.052;2023-12-20T05:57:29;7.40;99.90
23116;DHT22;11727;52.134;5.052;2023-12-20T05:59:54;7.40;99.90
23116;DHT22;11727;52.134;5.052;2023-12-20T06:02:22;7.50;99.90
23116;DHT22;11727;52.134;5.052;2023-12-20T06:04:48;7.50;99.90
23116;DHT22;11727;52.134;5.052;2023-12-20T06:07:14;7.50;99.90
23116;DHT22;11727;52.134;5.052;2023-12-20T06:09:43;7.50;99.90
23116;DHT22;11727;52.134;5.052;2023-12-20T06:12:08;7.50;99.90
23116;DHT22;11727;52.134;5.052;2023-12-20T06:14:34;7.50;99.90
23116;DHT22;11727;52.134;5.052;2023-12-20T06:17:00;7.50;99.90
23116;DHT22;11727;52.134;5.052;2023-12-20T06:19:27;7.50;99.90
23116;DHT22;11727;52.134;5.052;2023-12-20T06:21:52;7.50;99.90
23116;DHT22;11727;52.134;5.052;2023-12-20T06:24:20;7.50;99.90
23116;DHT22;11727;52.134;5.052;2023-12-20T06:26:47;7.50;99.90
23116;DHT22;11727;52.134;5.052;2023-12-20T06:29:12;7.60;99.90
23116;DHT22;11727;52.134;5.052;2023-12-20T06:31:38;7.50;99.90
23116;DHT22;11727;52.134;5.052;2023-12-20T06:34:03;7.60;99.90
23116;DHT22;11727;52.134;5.052;2023-12-20T06:36:29;7.60;99.90
23116;DHT22;11727;52.134;5.052;2023-12-20T06:38:55;7.60;99.90
23116;DHT22;11727;52.134;5.052;2023-12-20T06:41:20;7.60;99.90
23116;DHT22;11727;52.134;5.052;2023-12-20T06:43:46;7.60;99.90
23116;DHT22;11727;52.134;5.052;2023-12-20T06:46:12;7.60;99.90
23116;DHT22;11727;52.134;5.052;2023-12-20T06:48:39;7.70;99.90
23116;DHT22;11727;52.134;5.052;2023-12-20T06:51:05;7.70;99.90
23116;DHT22;11727;52.134;5.052;2023-12-20T06:53:31;7.70;99.90
23116;DHT22;11727;52.134;5.052;2023-12-20T06:55:57;7.70;99.90
23116;DHT22;11727;52.134;5.052;2023-12-20T06:58:23;7.70;99.90
23116;DHT22;11727;52.134;5.052;2023-12-20T07:00:49;7.70;99.90
23116;DHT22;11727;52.134;5.052;2023-12-20T07:03:15;7.80;99.90
23116;DHT22;11727;52.134;5.052;2023-12-20T07:05:41;7.80;99.90
23116;DHT22;11727;52.134;5.052;2023-12-20T07:08:07;7.80;99.90
23116;DHT22;11727;52.134;5.052;2023-12-20T07:10:33;7.80;99.90
23116;DHT22;11727;52.134;5.052;2023-12-20T07:12:58;7.80;99.90
23116;DHT22;11727;52.134;5.052;2023-12-20T07:15:24;7.80;99.90
23116;DHT22;11727;52.134;5.052;2023-12-20T07:17:50;7.80;99.90
23116;DHT22;11727;52.134;5.052;2023-12-20T07:20:15;7.80;99.90
23116;DHT22;11727;52.134;5.052;2023-12-20T07:22:41;7.80;99.90
23116;DHT22;11727;52.134;5.052;2023-12-20T07:25:07;7.80;99.90
23116;DHT22;11727;52.134;5.052;2023-12-20T07:27:33;7.80;99.90
23116;DHT22;11727;52.134;5.052;2023-12-20T07:29:58;7.80;99.90
23116;DHT22;11727;52.134;5.052;2023-12-20T07:32:24;7.80;99.90
23116;DHT22;11727;52.134;5.052;2023-12-20T07:34:50;7.80;99.90
23116;DHT22;11727;52.134;5.052;2023-12-20T07:37:15;7.80;99.90
23116;DHT22;11727;52.134;5.052;2023-12-20T07:39:41;7.90;99.90
23116;DHT22;11727;52.134;5.052;2023-12-20T07:42:07;7.90;99.90
23116;DHT22;11727;52.134;5.052;2023-12-20T07:44:33;7.90;99.90
23116;DHT22;11727;52.134;5.052;2023-12-20T07:46:59;7.90;99.90
23116;DHT22;11727;52.134;5.052;2023-12-20T07:49:26;7.90;99.90
23116;DHT22;11727;52.134;5.052;2023-12-20T07:51:52;7.90;99.90
23116;DHT22;11727;52.134;5.052;2023-12-20T07:54:17;7.90;99.90
23116;DHT22;11727;52.134;5.052;2023-12-20T07:56:43;7.90;99.90
23116;DHT22;11727;52.134;5.052;2023-12-20T07:59:09;7.90;99.90
23116;DHT22;11727;52.134;5.052;2023-12-20T08:01:34;7.90;99.90
23116;DHT22;11727;52.134;5.052;2023-12-20T08:04:00;7.90;99.90
23116;DHT22;11727;52.134;5.052;2023-12-20T08:06:25;7.90;99.90
23116;DHT22;11727;52.134;5.052;2023-12-20T08:08:51;7.90;99.90
23116;DHT22;11727;52.134;5.052;2023-12-20T08:11:17;7.90;99.90
23116;DHT22;11727;52.134;5.052;2023-12-20T08:13:43;7.90;99.90
23116;DHT22;11727;52.134;5.052;2023-12-20T08:16:08;7.90;99.90
23116;DHT22;11727;52.134;5.052;2023-12-20T08:18:34;7.90;99.90
23116;DHT22;11727;52.134;5.052;2023-12-20T08:21:00;8.00;99.90
23116;DHT22;11727;52.134;5.052;2023-12-20T08:23:26;7.90;99.90
23116;DHT22;11727;52.134;5.052;2023-12-20T08:25:52;8.00;99.90
23116;DHT22;11727;52.134;5.052;2023-12-20T08:28:18;8.00;99.90
23116;DHT22;11727;52.134;5.052;2023-12-20T08:30:43;8.00;99.90
23116;DHT22;11727;52.134;5.052;2023-12-20T08:33:09;8.00;99.90
23116;DHT22;11727;52.134;5.052;2023-12-20T08:35:41;8.00;99.90
23116;DHT22;11727;52.134;5.052;2023-12-20T08:38:06;8.00;99.90
23116;DHT22;11727;52.134;5.052;2023-12-20T08:40:32;8.10;99.90
23116;DHT22;11727;52.134;5.052;2023-12-20T08:42:58;8.10;99.90
23116;DHT22;11727;52.134;5.052;2023-12-20T08:45:24;8.10;99.90
23116;DHT22;11727;52.134;5.052;2023-12-20T08:47:50;8.10;99.90
23116;DHT22;11727;52.134;5.052;2023-12-20T08:50:15;8.20;99.90
23116;DHT22;11727;52.134;5.052;2023-12-20T08:52:41;8.20;99.90
23116;DHT22;11727;52.134;5.052;2023-12-20T08:55:07;8.20;99.90
23116;DHT22;11727;52.134;5.052;2023-12-20T08:57:33;8.30;99.90
23116;DHT22;11727;52.134;5.052;2023-12-20T08:59:59;8.30;99.90
23116;DHT22;11727;52.134;5.052;2023-12-20T09:02:24;8.30;99.90
23116;DHT22;11727;52.134;5.052;2023-12-20T09:04:50;8.30;99.90
23116;DHT22;11727;52.134;5.052;2023-12-20T09:07:26;8.40;99.90
23116;DHT22;11727;52.134;5.052;2023-12-20T09:09:53;8.40;99.90
23116;DHT22;11727;52.134;5.052;2023-12-20T09:12:19;8.40;99.90
23116;DHT22;11727;52.134;5.052;2023-12-20T09:14:46;8.40;99.90
23116;DHT22;11727;52.134;5.052;2023-12-20T09:17:12;8.40;99.90
23116;DHT22;11727;52.134;5.052;2023-12-20T09:19:38;8.50;99.90
23116;DHT22;11727;52.134;5.052;2023-12-20T09:22:04;8.50;99.90
23116;DHT22;11727;52.134;5.052;2023-12-20T09:24:30;8.50;99.90
23116;DHT22;11727;52.134;5.052;2023-12-20T09:26:56;8.50;99.90
23116;DHT22;11727;52.134;5.052;2023-12-20T09:29:22;8.60;99.90
23116;DHT22;11727;52.134;5.052;2023-12-20T09:31:48;8.60;99.90
23116;DHT22;11727;52.134;5.052;2023-12-20T09:34:15;8.60;99.90
23116;DHT22;11727;52.134;5.052;2023-12-20T09:36:41;8.60;99.90
23116;DHT22;11727;52.134;5.052;2023-12-20T09:39:14;8.60;99.90
23116;DHT22;11727;52.134;5.052;2023-12-20T09:41:44;8.60;99.90
23116;DHT22;11727;52.134;5.052;2023-12-20T09:44:16;8.70;99.90
23116;DHT22;11727;52.134;5.052;2023-12-20T09:46:49;8.70;99.90
23116;DHT22;11727;52.134;5.052;2023-12-20T09:49:17;8.70;99.90
23116;DHT22;11727;52.134;5.052;2023-12-20T09:51:43;8.70;99.90
23116;DHT22;11727;52.134;5.052;2023-12-20T09:54:10;8.70;99.90
23116;DHT22;11727;52.134;5.052;2023-12-20T09:56:37;8.70;99.90
23116;DHT22;11727;52.134;5.052;2023-12-20T09:59:02;8.70;99.90
23116;DHT22;11727;52.134;5.052;2023-12-20T10:01:28;8.80;99.90
23116;DHT22;11727;52.134;5.052;2023-12-20T10:03:54;8.80;99.90
23116;DHT22;11727;52.134;5.052;2023-12-20T10:06:21;8.80;99.90
23116;DHT22;11727;52.134;5.052;2023-12-20T10:08:46;8.80;99.90
23116;DHT22;11727;52.134;5.052;2023-12-20T10:11:12;8.80;99.90
23116;DHT22;11727;52.134;5.052;2023-12-20T10:13:42;8.90;99.90
23116;DHT22;11727;52.134;5.052;2023-12-20T10:16:08;8.90;99.90
23116;DHT22;11727;52.134;5.052;2023-12-20T10:18:34;8.90;99.90
23116;DHT22;11727;52.134;5.052;2023-12-20T10:21:00;8.90;99.90
23116;DHT22;11727;52.134;5.052;2023-12-20T10:23:26;8.90;99.90
23116;DHT22;11727;52.134;5.052;2023-12-20T10:25:58;8.90;99.90
23116;DHT22;11727;52.134;5.052;2023-12-20T10:28:24;9.00;99.90
23116;DHT22;11727;52.134;5.052;2023-12-20T10:30:53;9.00;99.90
23116;DHT22;11727;52.134;5.052;2023-12-20T10:33:25;9.00;99.90
23116;DHT22;11727;52.134;5.052;2023-12-20T10:35:52;9.00;99.90
23116;DHT22;11727;52.134;5.052;2023-12-20T10:38:18;9.00;99.90
23116;DHT22;11727;52.134;5.052;2023-12-20T10:40:45;9.00;99.90
23116;DHT22;11727;52.134;5.052;2023-12-20T10:43:12;9.00;99.90
23116;DHT22;11727;52.134;5.052;2023-12-20T10:45:38;9.00;99.90
23116;DHT22;11727;52.134;5.052;2023-12-20T10:48:04;9.00;99.90
23116;DHT22;11727;52.134;5.052;2023-12-20T10:50:30;9.00;99.90
23116;DHT22;11727;52.134;5.052;2023-12-20T10:52:57;9.00;99.90
23116;DHT22;11727;52.134;5.052;2023-12-20T10:55:24;9.10;99.90
23116;DHT22;11727;52.134;5.052;2023-12-20T10:57:56;9.10;99.90
23116;DHT22;11727;52.134;5.052;2023-12-20T11:00:23;9.10;99.90
23116;DHT22;11727;52.134;5.052;2023-12-20T11:02:49;9.20;99.90
23116;DHT22;11727;52.134;5.052;2023-12-20T11:07:48;9.20;99.90
23116;DHT22;11727;52.134;5.052;2023-12-20T11:10:23;9.30;99.90
23116;DHT22;11727;52.134;5.052;2023-12-20T11:12:54;9.30;99.90
23116;DHT22;11727;52.134;5.052;2023-12-20T11:15:23;9.40;99.90
23116;DHT22;11727;52.134;5.052;2023-12-20T11:17:56;9.40;99.90
23116;DHT22;11727;52.134;5.052;2023-12-20T11:20:23;9.50;99.90
23116;DHT22;11727;52.134;5.052;2023-12-20T11:22:53;9.50;99.90
23116;DHT22;11727;52.134;5.052;2023-12-20T11:25:19;9.50;99.90
23116;DHT22;11727;52.134;5.052;2023-12-20T11:28:09;9.50;99.90
23116;DHT22;11727;52.134;5.052;2023-12-20T11:31:01;9.50;99.90
23116;DHT22;11727;52.134;5.052;2023-12-20T11:33:37;9.60;99.90
23116;DHT22;11727;52.134;5.052;2023-12-20T11:36:03;9.50;99.90
23116;DHT22;11727;52.134;5.052;2023-12-20T11:38:38;9.60;99.90
23116;DHT22;11727;52.134;5.052;2023-12-20T11:41:06;9.60;99.90
23116;DHT22;11727;52.134;5.052;2023-12-20T11:43:36;9.60;99.90
23116;DHT22;11727;52.134;5.052;2023-12-20T11:46:06;9.60;99.90
23116;DHT22;11727;52.134;5.052;2023-12-20T11:48:32;9.60;99.90
23116;DHT22;11727;52.134;5.052;2023-12-20T11:50:58;9.60;99.90
23116;DHT22;11727;52.134;5.052;2023-12-20T11:53:24;9.60;99.90
23116;DHT22;11727;52.134;5.052;2023-12-20T11:55:50;9.60;99.90
23116;DHT22;11727;52.134;5.052;2023-12-20T11:58:16;9.60;99.90
23116;DHT22;11727;52.134;5.052;2023-12-20T12:00:42;9.70;99.90
23116;DHT22;11727;52.134;5.052;2023-12-20T12:03:09;9.70;99.90
23116;DHT22;11727;52.134;5.052;2023-12-20T12:05:35;9.70;99.90
23116;DHT22;11727;52.134;5.052;2023-12-20T12:08:02;9.70;99.90
23116;DHT22;11727;52.134;5.052;2023-12-20T12:10:28;9.70;99.90
23116;DHT22;11727;52.134;5.052;2023-12-20T12:12:54;9.70;99.90
23116;DHT22;11727;52.134;5.052;2023-12-20T12:15:20;9.60;99.90
23116;DHT22;11727;52.134;5.052;2023-12-20T12:17:56;9.60;99.90
23116;DHT22;11727;52.134;5.052;2023-12-20T12:20:22;9.60;99.90
23116;DHT22;11727;52.134;5.052;2023-12-20T12:23:06;9.60;99.90
23116;DHT22;11727;52.134;5.052;2023-12-20T12:25:34;9.60;99.90
23116;DHT22;11727;52.134;5.052;2023-12-20T12:28:01;9.60;99.90
23116;DHT22;11727;52.134;5.052;2023-12-20T12:30:27;9.70;99.90
23116;DHT22;11727;52.134;5.052;2023-12-20T12:32:53;9.70;99.90
23116;DHT22;11727;52.134;5.052;2023-12-20T12:35:19;9.60;99.90
23116;DHT22;11727;52.134;5.052;2023-12-20T12:37:45;9.60;99.90
23116;DHT22;11727;52.134;5.052;2023-12-20T12:40:15;9.60;99.90
23116;DHT22;11727;52.134;5.052;2023-12-20T12:42:43;9.60;99.90
23116;DHT22;11727;52.134;5.052;2023-12-20T12:45:18;9.60;99.90
23116;DHT22;11727;52.134;5.052;2023-12-20T12:47:50;9.60;99.90
23116;DHT22;11727;52.134;5.052;2023-12-20T12:50:21;9.60;99.90
23116;DHT22;11727;52.134;5.052;2023-12-20T12:52:47;9.60;99.90
23116;DHT22;11727;52.134;5.052;2023-12-20T12:55:13;9.60;99.90
23116;DHT22;11727;52.134;5.052;2023-12-20T12:57:38;9.60;99.90
23116;DHT22;11727;52.134;5.052;2023-12-20T13:00:04;9.60;99.90
23116;DHT22;11727;52.134;5.052;2023-12-20T13:02:33;9.60;99.90
23116;DHT22;11727;52.134;5.052;2023-12-20T13:04:59;9.50;99.90
23116;DHT22;11727;52.134;5.052;2023-12-20T13:07:26;9.60;99.90
23116;DHT22;11727;52.134;5.052;2023-12-20T13:09:52;9.50;99.90
23116;DHT22;11727;52.134;5.052;2023-12-20T13:12:17;9.60;99.90
23116;DHT22;11727;52.134;5.052;2023-12-20T13:14:43;9.60;99.90
23116;DHT22;11727;52.134;5.052;2023-12-20T13:17:08;9.60;99.90
23116;DHT22;11727;52.134;5.052;2023-12-20T13:19:34;9.60;99.90
23116;DHT22;11727;52.134;5.052;2023-12-20T13:22:00;9.60;99.90
23116;DHT22;11727;52.134;5.052;2023-12-20T13:24:26;9.50;99.90
23116;DHT22;11727;52.134;5.052;2023-12-20T13:26:51;9.60;99.90
23116;DHT22;11727;52.134;5.052;2023-12-20T13:29:17;9.50;99.90
23116;DHT22;11727;52.134;5.052;2023-12-20T13:31:43;9.50;99.90
23116;DHT22;11727;52.134;5.052;2023-12-20T13:34:08;9.60;99.90
23116;DHT22;11727;52.134;5.052;2023-12-20T13:36:34;9.50;99.90
23116;DHT22;11727;52.134;5.052;2023-12-20T13:39:02;9.50;99.90
23116;DHT22;11727;52.134;5.052;2023-12-20T13:41:29;9.50;99.90
23116;DHT22;11727;52.134;5.052;2023-12-20T13:43:55;9.50;99.90
23116;DHT22;11727;52.134;5.052;2023-12-20T13:46:21;9.50;99.90
23116;DHT22;11727;52.134;5.052;2023-12-20T13:48:47;9.50;99.90
23116;DHT22;11727;52.134;5.052;2023-12-20T13:51:12;9.50;99.90
23116;DHT22;11727;52.134;5.052;2023-12-20T13:53:38;9.50;99.90
23116;DHT22;11727;52.134;5.052;2023-12-20T13:56:04;9.50;99.90
23116;DHT22;11727;52.134;5.052;2023-12-20T13:58:30;9.50;99.90
23116;DHT22;11727;52.134;5.052;2023-12-20T14:00:56;9.60;99.90
23116;DHT22;11727;52.134;5.052;2023-12-20T14:03:21;9.60;99.90
23116;DHT22;11727;52.134;5.052;2023-12-20T14:05:47;9.60;99.90
23116;DHT22;11727;52.134;5.052;2023-12-20T14:08:12;9.50;99.90
23116;DHT22;11727;52.134;5.052;2023-12-20T14:10:38;9.50;99.90
23116;DHT22;11727;52.134;5.052;2023-12-20T14:13:04;9.50;99.90
23116;DHT22;11727;52.134;5.052;2023-12-20T14:15:30;9.50;99.90
23116;DHT22;11727;52.134;5.052;2023-12-20T14:18:03;9.50;99.90
23116;DHT22;11727;52.134;5.052;2023-12-20T14:20:31;9.40;99.90
23116;DHT22;11727;52.134;5.052;2023-12-20T14:22:57;9.40;99.90
23116;DHT22;11727;52.134;5.052;2023-12-20T14:25:23;9.40;99.90
23116;DHT22;11727;52.134;5.052;2023-12-20T14:27:48;9.40;99.90
23116;DHT22;11727;52.134;5.052;2023-12-20T14:30:14;9.40;99.90
23116;DHT22;11727;52.134;5.052;2023-12-20T14:32:40;9.40;99.90
23116;DHT22;11727;52.134;5.052;2023-12-20T14:35:06;9.40;99.90
23116;DHT22;11727;52.134;5.052;2023-12-20T14:37:36;9.40;99.90
23116;DHT22;11727;52.134;5.052;2023-12-20T14:40:06;9.30;99.90
23116;DHT22;11727;52.134;5.052;2023-12-20T14:42:35;9.30;99.90
23116;DHT22;11727;52.134;5.052;2023-12-20T14:45:01;9.30;99.90
23116;DHT22;11727;52.134;5.052;2023-12-20T14:47:27;9.30;99.90
23116;DHT22;11727;52.134;5.052;2023-12-20T14:49:52;9.30;99.90
23116;DHT22;11727;52.134;5.052;2023-12-20T14:52:18;9.30;99.90
23116;DHT22;11727;52.134;5.052;2023-12-20T14:54:45;9.30;99.90
23116;DHT22;11727;52.134;5.052;2023-12-20T14:57:10;9.30;99.90
23116;DHT22;11727;52.134;5.052;2023-12-20T14:59:36;9.30;99.90
23116;DHT22;11727;52.134;5.052;2023-12-20T15:02:02;9.30;99.90
23116;DHT22;11727;52.134;5.052;2023-12-20T15:04:31;9.30;99.90
23116;DHT22;11727;52.134;5.052;2023-12-20T15:07:05;9.30;99.90
23116;DHT22;11727;52.134;5.052;2023-12-20T15:09:33;9.30;99.90
23116;DHT22;11727;52.134;5.052;2023-12-20T15:11:58;9.30;99.90
23116;DHT22;11727;52.134;5.052;2023-12-20T15:14:24;9.30;99.90
23116;DHT22;11727;52.134;5.052;2023-12-20T15:16:49;9.30;99.90
23116;DHT22;11727;52.134;5.052;2023-12-20T15:19:15;9.30;99.90
23116;DHT22;11727;52.134;5.052;2023-12-20T15:21:41;9.30;99.90
23116;DHT22;11727;52.134;5.052;2023-12-20T15:24:11;9.30;99.90
23116;DHT22;11727;52.134;5.052;2023-12-20T15:26:42;9.30;99.90
23116;DHT22;11727;52.134;5.052;2023-12-20T15:29:09;9.30;99.90
23116;DHT22;11727;52.134;5.052;2023-12-20T15:31:37;9.30;99.90
23116;DHT22;11727;52.134;5.052;2023-12-20T15:34:07;9.20;99.90
23116;DHT22;11727;52.134;5.052;2023-12-20T15:36:32;9.20;99.90
23116;DHT22;11727;52.134;5.052;2023-12-20T15:38:58;9.20;99.90
23116;DHT22;11727;52.134;5.052;2023-12-20T15:41:23;9.20;99.90
23116;DHT22;11727;52.134;5.052;2023-12-20T15:43:52;9.10;99.90